sensor_id;sensor_type;location;lat;lon;timestamp;temperature;humidity
37786;DHT22;23625;48.784;9.336;2024-02-23T00:01:56;7.00;99.90
37786;DHT22;23625;48.784;9.336;2024-02-23T00:04:22;6.90;99.90
37786;DHT22;23625;48.784;9.336;2024-02-23T00:06:47;6.80;99.90
37786;DHT22;23625;48.784;9.336;2024-02-23T00:09:13;6.80;99.90
37786;DHT22;23625;48.784;9.336;2024-02-23T00:11:41;6.70;99.90
37786;DHT22;23625;48.784;9.336;2024-02-23T00:14:11;6.70;99.90
37786;DHT22;23625;48.784;9.336;2024-02-23T00:16:39;6.70;99.90
37786;DHT22;23625;48.784;9.336;2024-02-23T00:19:07;6.70;99.90
37786;DHT22;23625;48.784;9.336;2024-02-23T00:21:33;6.70;99.90
37786;DHT22;23625;48.784;9.336;2024-02-23T00:23:59;6.70;99.90
37786;DHT22;23625;48.784;9.336;2024-02-23T00:26:24;6.70;99.90
37786;DHT22;23625;48.784;9.336;2024-02-23T00:28:50;6.60;99.90
37786;DHT22;23625;48.784;9.336;2024-02-23T00:31:15;6.60;99.90
37786;DHT22;23625;48.784;9.336;2024-02-23T00:33:41;6.70;99.90
37786;DHT22;23625;48.784;9.336;2024-02-23T00:36:08;6.70;99.90
37786;DHT22;23625;48.784;9.336;2024-02-23T00:38:33;6.60;99.90
37786;DHT22;23625;48.784;9.336;2024-02-23T00:40:59;6.70;99.90
37786;DHT22;23625;48.784;9.336;2024-02-23T00:43:24;6.80;99.90
37786;DHT22;23625;48.784;9.336;2024-02-23T00:45:50;6.80;99.90
37786;DHT22;23625;48.784;9.336;2024-02-23T00:48:16;6.70;99.90
37786;DHT22;23625;48.784;9.336;2024-02-23T00:50:42;6.70;99.90
37786;DHT22;23625;48.784;9.336;2024-02-23T00:53:08;6.70;99.90
37786;DHT22;23625;48.784;9.336;2024-02-23T00:55:33;6.60;99.90
37786;DHT22;23625;48.784;9.336;2024-02-23T00:57:59;6.60;99.90
37786;DHT22;23625;48.784;9.336;2024-02-23T01:00:25;6.60;99.90
37786;DHT22;23625;48.784;9.336;2024-02-23T01:02:50;6.60;99.90
37786;DHT22;23625;48.784;9.336;2024-02-23T01:05:17;6.50;99.90
37786;DHT22;23625;48.784;9.336;2024-02-23T01:07:43;6.50;99.90
37786;DHT22;23625;48.784;9.336;2024-02-23T01:10:08;6.60;99.90
37786;DHT22;23625;48.784;9.336;2024-02-23T01:12:35;6.60;99.90
37786;DHT22;23625;48.784;9.336;2024-02-23T01:15:00;6.60;99.90
37786;DHT22;23625;48.784;9.336;2024-02-23T01:17:26;6.50;99.90
37786;DHT22;23625;48.784;9.336;2024-02-23T01:19:52;6.50;99.90
37786;DHT22;23625;48.784;9.336;2024-02-23T01:22:17;6.50;99.90
37786;DHT22;23625;48.784;9.336;2024-02-23T01:24:43;6.60;99.90
37786;DHT22;23625;48.784;9.336;2024-02-23T01:27:08;6.60;99.90
37786;DHT22;23625;48.784;9.336;2024-02-23T01:29:34;6.50;99.90
37786;DHT22;23625;48.784;9.336;2024-02-23T01:32:00;6.50;99.90
37786;DHT22;23625;48.784;9.336;2024-02-23T01:34:25;6.50;99.90
37786;DHT22;23625;48.784;9.336;2024-02-23T01:36:51;6.50;99.90
37786;DHT22;23625;48.784;9.336;2024-02-23T01:39:16;6.50;99.90
37786;DHT22;23625;48.784;9.336;2024-02-23T01:41:42;6.50;99.90
37786;DHT22;23625;48.784;9.336;2024-02-23T01:44:10;6.50;99.90
37786;DHT22;23625;48.784;9.336;2024-02-23T01:46:36;6.50;99.90
37786;DHT22;23625;48.784;9.336;2024-02-23T01:49:02;6.50;99.90
37786;DHT22;23625;48.784;9.336;2024-02-23T01:51:28;6.50;99.90
37786;DHT22;23625;48.784;9.336;2024-02-23T01:53:55;6.50;99.90
37786;DHT22;23625;48.784;9.336;2024-02-23T01:56:20;6.50;99.90
37786;DHT22;23625;48.784;9.336;2024-02-23T01:58:46;6.50;99.90
37786;DHT22;23625;48.784;9.336;2024-02-23T02:01:12;6.50;99.90
37786;DHT22;23625;48.784;9.336;2024-02-23T02:03:39;6.40;99.90
37786;DHT22;23625;48.784;9.336;2024-02-23T02:06:06;6.40;99.90
37786;DHT22;23625;48.784;9.336;2024-02-23T02:08:35;6.40;99.90
37786;DHT22;23625;48.784;9.336;2024-02-23T02:11:01;6.30;99.90
37786;DHT22;23625;48.784;9.336;2024-02-23T02:13:30;6.30;99.90
37786;DHT22;23625;48.784;9.336;2024-02-23T02:16:00;6.30;99.90
37786;DHT22;23625;48.784;9.336;2024-02-23T02:18:26;6.30;99.90
37786;DHT22;23625;48.784;9.336;2024-02-23T02:20:55;6.30;99.90
37786;DHT22;23625;48.784;9.336;2024-02-23T02:23:22;6.20;99.90
37786;DHT22;23625;48.784;9.336;2024-02-23T02:25:57;6.20;99.90
37786;DHT22;23625;48.784;9.336;2024-02-23T02:28:24;6.10;99.90
37786;DHT22;23625;48.784;9.336;2024-02-23T02:30:51;6.00;99.90
37786;DHT22;23625;48.784;9.336;2024-02-23T02:33:18;6.00;99.90
37786;DHT22;23625;48.784;9.336;2024-02-23T02:35:44;6.00;99.90
37786;DHT22;23625;48.784;9.336;2024-02-23T02:38:10;6.00;99.90
37786;DHT22;23625;48.784;9.336;2024-02-23T02:40:36;6.00;99.90
37786;DHT22;23625;48.784;9.336;2024-02-23T02:43:02;5.90;99.90
37786;DHT22;23625;48.784;9.336;2024-02-23T02:45:28;5.90;99.90
37786;DHT22;23625;48.784;9.336;2024-02-23T02:47:53;5.90;99.90
37786;DHT22;23625;48.784;9.336;2024-02-23T02:50:19;5.90;99.90
37786;DHT22;23625;48.784;9.336;2024-02-23T02:52:44;5.80;99.90
37786;DHT22;23625;48.784;9.336;2024-02-23T02:55:10;5.90;99.90
37786;DHT22;23625;48.784;9.336;2024-02-23T02:57:36;5.90;99.90
37786;DHT22;23625;48.784;9.336;2024-02-23T03:00:05;5.70;99.90
37786;DHT22;23625;48.784;9.336;2024-02-23T03:02:31;5.70;99.90
37786;DHT22;23625;48.784;9.336;2024-02-23T03:04:57;5.70;99.90
37786;DHT22;23625;48.784;9.336;2024-02-23T03:07:23;5.60;99.90
37786;DHT22;23625;48.784;9.336;2024-02-23T03:09:48;5.60;99.90
37786;DHT22;23625;48.784;9.336;2024-02-23T03:12:16;5.60;99.90
37786;DHT22;23625;48.784;9.336;2024-02-23T03:14:41;5.60;99.90
37786;DHT22;23625;48.784;9.336;2024-02-23T03:17:08;5.60;99.90
37786;DHT22;23625;48.784;9.336;2024-02-23T03:19:34;5.50;99.90
37786;DHT22;23625;48.784;9.336;2024-02-23T03:22:00;5.50;99.90
37786;DHT22;23625;48.784;9.336;2024-02-23T03:24:26;5.50;99.90
37786;DHT22;23625;48.784;9.336;2024-02-23T03:26:51;5.50;99.90
37786;DHT22;23625;48.784;9.336;2024-02-23T03:29:17;5.40;99.90
37786;DHT22;23625;48.784;9.336;2024-02-23T03:31:42;5.40;99.90
37786;DHT22;23625;48.784;9.336;2024-02-23T03:34:08;5.40;99.90
37786;DHT22;23625;48.784;9.336;2024-02-23T03:36:34;5.40;99.90
37786;DHT22;23625;48.784;9.336;2024-02-23T03:39:00;5.40;99.90
37786;DHT22;23625;48.784;9.336;2024-02-23T03:41:26;5.40;99.90
37786;DHT22;23625;48.784;9.336;2024-02-23T03:43:51;5.40;99.90
37786;DHT22;23625;48.784;9.336;2024-02-23T03:46:17;5.40;99.90
37786;DHT22;23625;48.784;9.336;2024-02-23T03:48:44;5.40;99.90
37786;DHT22;23625;48.784;9.336;2024-02-23T03:51:10;5.40;99.90
37786;DHT22;23625;48.784;9.336;2024-02-23T03:53:35;5.40;99.90
37786;DHT22;23625;48.784;9.336;2024-02-23T03:56:01;5.40;99.90
37786;DHT22;23625;48.784;9.336;2024-02-23T03:58:26;5.40;99.90
37786;DHT22;23625;48.784;9.336;2024-02-23T04:00:52;5.40;99.90
37786;DHT22;23625;48.784;9.336;2024-02-23T04:03:17;5.50;99.90
37786;DHT22;23625;48.784;9.336;2024-02-23T04:05:43;5.50;99.90
37786;DHT22;23625;48.784;9.336;2024-02-23T04:08:09;5.40;99.90
37786;DHT22;23625;48.784;9.336;2024-02-23T04:10:34;5.50;99.90
37786;DHT22;23625;48.784;9.336;2024-02-23T04:13:00;5.50;99.90
37786;DHT22;23625;48.784;9.336;2024-02-23T04:15:26;5.50;99.90
37786;DHT22;23625;48.784;9.336;2024-02-23T04:17:52;5.50;99.90
37786;DHT22;23625;48.784;9.336;2024-02-23T04:20:17;5.50;99.90
37786;DHT22;23625;48.784;9.336;2024-02-23T04:22:43;5.60;99.90
37786;DHT22;23625;48.784;9.336;2024-02-23T04:25:09;5.60;99.90
37786;DHT22;23625;48.784;9.336;2024-02-23T04:27:35;5.50;99.90
37786;DHT22;23625;48.784;9.336;2024-02-23T04:30:01;5.50;99.90
37786;DHT22;23625;48.784;9.336;2024-02-23T04:32:26;5.50;99.90
37786;DHT22;23625;48.784;9.336;2024-02-23T04:34:52;5.40;99.90
37786;DHT22;23625;48.784;9.336;2024-02-23T04:37:17;5.40;99.90
37786;DHT22;23625;48.784;9.336;2024-02-23T04:39:46;5.40;99.90
37786;DHT22;23625;48.784;9.336;2024-02-23T04:42:11;5.40;99.90
37786;DHT22;23625;48.784;9.336;2024-02-23T04:44:37;5.40;99.90
37786;DHT22;23625;48.784;9.336;2024-02-23T04:47:02;5.40;99.90
37786;DHT22;23625;48.784;9.336;2024-02-23T04:49:28;5.30;99.90
37786;DHT22;23625;48.784;9.336;2024-02-23T04:51:54;5.30;99.90
37786;DHT22;23625;48.784;9.336;2024-02-23T04:54:20;5.30;99.90
37786;DHT22;23625;48.784;9.336;2024-02-23T04:56:46;5.30;99.90
37786;DHT22;23625;48.784;9.336;2024-02-23T04:59:13;5.20;99.90
37786;DHT22;23625;48.784;9.336;2024-02-23T05:01:39;5.20;99.90
37786;DHT22;23625;48.784;9.336;2024-02-23T05:04:04;5.20;99.90
37786;DHT22;23625;48.784;9.336;2024-02-23T05:06:30;5.10;99.90
37786;DHT22;23625;48.784;9.336;2024-02-23T05:08:56;5.20;99.90
37786;DHT22;23625;48.784;9.336;2024-02-23T05:11:21;5.10;99.90
37786;DHT22;23625;48.784;9.336;2024-02-23T05:13:47;5.10;99.90
37786;DHT22;23625;48.784;9.336;2024-02-23T05:16:16;5.00;99.90
37786;DHT22;23625;48.784;9.336;2024-02-23T05:18:42;4.90;99.90
37786;DHT22;23625;48.784;9.336;2024-02-23T05:21:09;4.80;99.90
37786;DHT22;23625;48.784;9.336;2024-02-23T05:23:35;4.70;99.90
37786;DHT22;23625;48.784;9.336;2024-02-23T05:26:01;4.70;99.90
37786;DHT22;23625;48.784;9.336;2024-02-23T05:28:26;4.60;99.90
37786;DHT22;23625;48.784;9.336;2024-02-23T05:30:54;4.60;99.90
37786;DHT22;23625;48.784;9.336;2024-02-23T05:33:19;4.50;99.90
37786;DHT22;23625;48.784;9.336;2024-02-23T05:35:48;4.50;99.90
37786;DHT22;23625;48.784;9.336;2024-02-23T05:38:16;4.40;99.90
37786;DHT22;23625;48.784;9.336;2024-02-23T05:40:42;4.40;99.90
37786;DHT22;23625;48.784;9.336;2024-02-23T05:43:08;4.30;99.90
37786;DHT22;23625;48.784;9.336;2024-02-23T05:45:34;4.30;99.90
37786;DHT22;23625;48.784;9.336;2024-02-23T05:47:59;4.30;99.90
37786;DHT22;23625;48.784;9.336;2024-02-23T05:50:25;4.30;99.90
37786;DHT22;23625;48.784;9.336;2024-02-23T05:52:51;4.30;99.90
37786;DHT22;23625;48.784;9.336;2024-02-23T05:55:18;4.20;99.90
37786;DHT22;23625;48.784;9.336;2024-02-23T05:57:44;4.20;99.90
37786;DHT22;23625;48.784;9.336;2024-02-23T06:00:10;4.20;99.90
37786;DHT22;23625;48.784;9.336;2024-02-23T06:02:37;4.20;99.90
37786;DHT22;23625;48.784;9.336;2024-02-23T06:05:02;4.20;99.90
37786;DHT22;23625;48.784;9.336;2024-02-23T06:07:29;4.10;99.90
37786;DHT22;23625;48.784;9.336;2024-02-23T06:09:56;4.10;99.90
37786;DHT22;23625;48.784;9.336;2024-02-23T06:12:22;4.10;99.90
37786;DHT22;23625;48.784;9.336;2024-02-23T06:14:47;4.10;99.90
37786;DHT22;23625;48.784;9.336;2024-02-23T06:17:13;4.00;99.90
37786;DHT22;23625;48.784;9.336;2024-02-23T06:19:39;4.00;99.90
37786;DHT22;23625;48.784;9.336;2024-02-23T06:22:04;4.00;99.90
37786;DHT22;23625;48.784;9.336;2024-02-23T06:24:30;3.90;99.90
37786;DHT22;23625;48.784;9.336;2024-02-23T06:26:55;3.90;99.90
37786;DHT22;23625;48.784;9.336;2024-02-23T06:29:23;3.90;99.90
37786;DHT22;23625;48.784;9.336;2024-02-23T06:31:48;3.80;99.90
37786;DHT22;23625;48.784;9.336;2024-02-23T06:34:15;3.80;99.90
37786;DHT22;23625;48.784;9.336;2024-02-23T06:36:41;3.80;99.90
37786;DHT22;23625;48.784;9.336;2024-02-23T06:39:07;3.70;99.90
37786;DHT22;23625;48.784;9.336;2024-02-23T06:41:33;3.70;99.90
37786;DHT22;23625;48.784;9.336;2024-02-23T06:43:59;3.70;99.90
37786;DHT22;23625;48.784;9.336;2024-02-23T06:46:25;4.20;99.90
37786;DHT22;23625;48.784;9.336;2024-02-23T06:48:50;3.70;99.90
37786;DHT22;23625;48.784;9.336;2024-02-23T06:51:16;3.80;99.90
37786;DHT22;23625;48.784;9.336;2024-02-23T06:53:42;3.70;99.90
37786;DHT22;23625;48.784;9.336;2024-02-23T06:56:07;3.70;99.90
37786;DHT22;23625;48.784;9.336;2024-02-23T06:58:34;3.70;99.90
37786;DHT22;23625;48.784;9.336;2024-02-23T07:01:00;3.70;99.90
37786;DHT22;23625;48.784;9.336;2024-02-23T07:03:26;3.80;99.90
37786;DHT22;23625;48.784;9.336;2024-02-23T07:05:52;3.70;99.90
37786;DHT22;23625;48.784;9.336;2024-02-23T07:08:17;3.80;99.90
37786;DHT22;23625;48.784;9.336;2024-02-23T07:10:43;3.80;99.90
37786;DHT22;23625;48.784;9.336;2024-02-23T07:13:09;3.80;99.90
37786;DHT22;23625;48.784;9.336;2024-02-23T07:15:34;3.90;99.90
37786;DHT22;23625;48.784;9.336;2024-02-23T07:18:01;3.90;99.90
37786;DHT22;23625;48.784;9.336;2024-02-23T07:20:27;4.00;99.90
37786;DHT22;23625;48.784;9.336;2024-02-23T07:22:52;4.10;99.90
37786;DHT22;23625;48.784;9.336;2024-02-23T07:25:19;4.20;99.90
37786;DHT22;23625;48.784;9.336;2024-02-23T07:27:48;4.20;99.90
37786;DHT22;23625;48.784;9.336;2024-02-23T07:30:17;4.30;99.90
37786;DHT22;23625;48.784;9.336;2024-02-23T07:32:43;4.40;99.90
37786;DHT22;23625;48.784;9.336;2024-02-23T07:35:09;4.40;99.90
37786;DHT22;23625;48.784;9.336;2024-02-23T07:37:36;4.60;99.90
37786;DHT22;23625;48.784;9.336;2024-02-23T07:40:02;4.70;99.90
37786;DHT22;23625;48.784;9.336;2024-02-23T07:42:30;4.80;99.90
37786;DHT22;23625;48.784;9.336;2024-02-23T07:44:55;4.80;99.90
37786;DHT22;23625;48.784;9.336;2024-02-23T07:47:21;4.80;99.90
37786;DHT22;23625;48.784;9.336;2024-02-23T07:49:47;4.90;99.90
37786;DHT22;23625;48.784;9.336;2024-02-23T07:52:13;5.00;99.90
37786;DHT22;23625;48.784;9.336;2024-02-23T07:54:38;5.10;99.90
37786;DHT22;23625;48.784;9.336;2024-02-23T07:57:04;5.20;99.90
37786;DHT22;23625;48.784;9.336;2024-02-23T07:59:32;5.20;99.90
37786;DHT22;23625;48.784;9.336;2024-02-23T08:01:58;5.20;99.90
37786;DHT22;23625;48.784;9.336;2024-02-23T08:04:24;5.30;99.90
37786;DHT22;23625;48.784;9.336;2024-02-23T08:06:50;5.20;99.90
37786;DHT22;23625;48.784;9.336;2024-02-23T08:09:16;5.40;99.90
37786;DHT22;23625;48.784;9.336;2024-02-23T08:11:43;5.30;99.90
37786;DHT22;23625;48.784;9.336;2024-02-23T08:14:08;5.40;99.90
37786;DHT22;23625;48.784;9.336;2024-02-23T08:16:34;5.40;99.90
37786;DHT22;23625;48.784;9.336;2024-02-23T08:18:59;5.50;99.90
37786;DHT22;23625;48.784;9.336;2024-02-23T08:21:25;5.50;99.90
37786;DHT22;23625;48.784;9.336;2024-02-23T08:23:51;5.50;99.90
37786;DHT22;23625;48.784;9.336;2024-02-23T08:26:17;5.50;99.90
37786;DHT22;23625;48.784;9.336;2024-02-23T08:28:43;5.60;99.90
37786;DHT22;23625;48.784;9.336;2024-02-23T08:31:08;5.60;99.90
37786;DHT22;23625;48.784;9.336;2024-02-23T08:33:34;5.60;99.90
37786;DHT22;23625;48.784;9.336;2024-02-23T08:36:00;5.70;99.90
37786;DHT22;23625;48.784;9.336;2024-02-23T08:38:25;5.70;99.90
37786;DHT22;23625;48.784;9.336;2024-02-23T08:40:51;5.70;99.90
37786;DHT22;23625;48.784;9.336;2024-02-23T08:43:16;5.70;99.90
37786;DHT22;23625;48.784;9.336;2024-02-23T08:45:42;5.70;99.90
37786;DHT22;23625;48.784;9.336;2024-02-23T08:48:08;5.80;99.90
37786;DHT22;23625;48.784;9.336;2024-02-23T08:50:34;5.80;99.90
37786;DHT22;23625;48.784;9.336;2024-02-23T08:52:59;5.80;99.90
37786;DHT22;23625;48.784;9.336;2024-02-23T08:55:25;5.90;99.90
37786;DHT22;23625;48.784;9.336;2024-02-23T08:57:51;5.80;99.90
37786;DHT22;23625;48.784;9.336;2024-02-23T09:00:17;5.90;99.90
37786;DHT22;23625;48.784;9.336;2024-02-23T09:02:42;5.90;99.90
37786;DHT22;23625;48.784;9.336;2024-02-23T09:05:08;6.00;99.90
37786;DHT22;23625;48.784;9.336;2024-02-23T09:07:35;6.00;99.90
37786;DHT22;23625;48.784;9.336;2024-02-23T09:10:01;6.10;99.90
37786;DHT22;23625;48.784;9.336;2024-02-23T09:12:27;6.10;99.90
37786;DHT22;23625;48.784;9.336;2024-02-23T09:14:52;6.10;99.90
37786;DHT22;23625;48.784;9.336;2024-02-23T09:17:18;6.10;99.90
37786;DHT22;23625;48.784;9.336;2024-02-23T09:19:46;6.20;99.90
37786;DHT22;23625;48.784;9.336;2024-02-23T09:22:11;6.20;99.90
37786;DHT22;23625;48.784;9.336;2024-02-23T09:24:40;6.40;97.00
37786;DHT22;23625;48.784;9.336;2024-02-23T09:27:06;6.40;97.00
37786;DHT22;23625;48.784;9.336;2024-02-23T09:29:32;6.50;97.80
37786;DHT22;23625;48.784;9.336;2024-02-23T09:31:58;6.50;99.10
37786;DHT22;23625;48.784;9.336;2024-02-23T09:34:24;6.50;96.90
37786;DHT22;23625;48.784;9.336;2024-02-23T09:36:50;6.50;95.50
37786;DHT22;23625;48.784;9.336;2024-02-23T09:39:16;6.60;97.20
37786;DHT22;23625;48.784;9.336;2024-02-23T09:41:42;6.70;93.20
37786;DHT22;23625;48.784;9.336;2024-02-23T09:44:08;6.70;94.50
37786;DHT22;23625;48.784;9.336;2024-02-23T09:46:36;6.70;93.10
37786;DHT22;23625;48.784;9.336;2024-02-23T09:49:03;6.70;94.90
37786;DHT22;23625;48.784;9.336;2024-02-23T09:51:29;6.80;94.90
37786;DHT22;23625;48.784;9.336;2024-02-23T09:53:57;6.80;94.30
37786;DHT22;23625;48.784;9.336;2024-02-23T09:56:27;6.80;91.90
37786;DHT22;23625;48.784;9.336;2024-02-23T09:58:55;6.90;92.30
37786;DHT22;23625;48.784;9.336;2024-02-23T10:01:27;6.80;92.40
37786;DHT22;23625;48.784;9.336;2024-02-23T10:04:00;7.00;94.10
37786;DHT22;23625;48.784;9.336;2024-02-23T10:06:26;7.00;90.40
37786;DHT22;23625;48.784;9.336;2024-02-23T10:08:52;7.20;91.70
37786;DHT22;23625;48.784;9.336;2024-02-23T10:11:20;7.20;90.80
37786;DHT22;23625;48.784;9.336;2024-02-23T10:13:48;7.40;91.10
37786;DHT22;23625;48.784;9.336;2024-02-23T10:16:18;7.40;89.00
37786;DHT22;23625;48.784;9.336;2024-02-23T10:18:49;7.40;87.00
37786;DHT22;23625;48.784;9.336;2024-02-23T10:21:15;7.40;86.70
37786;DHT22;23625;48.784;9.336;2024-02-23T10:23:43;7.40;85.30
37786;DHT22;23625;48.784;9.336;2024-02-23T10:26:12;7.30;86.00
37786;DHT22;23625;48.784;9.336;2024-02-23T10:28:37;7.30;84.00
37786;DHT22;23625;48.784;9.336;2024-02-23T10:31:06;7.30;84.80
37786;DHT22;23625;48.784;9.336;2024-02-23T10:33:32;7.30;85.60
37786;DHT22;23625;48.784;9.336;2024-02-23T10:35:58;7.30;84.40
37786;DHT22;23625;48.784;9.336;2024-02-23T10:38:26;7.40;83.20
37786;DHT22;23625;48.784;9.336;2024-02-23T10:40:56;7.40;83.30
37786;DHT22;23625;48.784;9.336;2024-02-23T10:43:33;7.50;84.70
37786;DHT22;23625;48.784;9.336;2024-02-23T10:46:00;7.50;82.10
37786;DHT22;23625;48.784;9.336;2024-02-23T10:48:28;7.50;81.30
37786;DHT22;23625;48.784;9.336;2024-02-23T10:50:55;7.60;82.00
37786;DHT22;23625;48.784;9.336;2024-02-23T10:53:23;7.60;79.70
37786;DHT22;23625;48.784;9.336;2024-02-23T10:55:53;7.50;79.00
37786;DHT22;23625;48.784;9.336;2024-02-23T10:58:21;7.50;80.40
37786;DHT22;23625;48.784;9.336;2024-02-23T11:00:47;7.50;80.70
37786;DHT22;23625;48.784;9.336;2024-02-23T11:03:14;7.60;79.40
37786;DHT22;23625;48.784;9.336;2024-02-23T11:05:41;7.60;78.70
37786;DHT22;23625;48.784;9.336;2024-02-23T11:08:07;7.60;78.30
37786;DHT22;23625;48.784;9.336;2024-02-23T11:10:42;7.70;78.60
37786;DHT22;23625;48.784;9.336;2024-02-23T11:13:08;7.80;78.30
37786;DHT22;23625;48.784;9.336;2024-02-23T11:15:34;7.90;77.70
37786;DHT22;23625;48.784;9.336;2024-02-23T11:18:27;7.90;77.20
37786;DHT22;23625;48.784;9.336;2024-02-23T11:20:59;8.00;76.40
37786;DHT22;23625;48.784;9.336;2024-02-23T11:23:25;8.00;75.30
37786;DHT22;23625;48.784;9.336;2024-02-23T11:28:28;7.90;76.00
37786;DHT22;23625;48.784;9.336;2024-02-23T11:30:54;7.90;76.70
37786;DHT22;23625;48.784;9.336;2024-02-23T11:33:26;8.00;77.10
37786;DHT22;23625;48.784;9.336;2024-02-23T11:35:52;8.00;77.20
37786;DHT22;23625;48.784;9.336;2024-02-23T11:38:19;8.00;75.70
37786;DHT22;23625;48.784;9.336;2024-02-23T11:40:49;8.00;75.80
37786;DHT22;23625;48.784;9.336;2024-02-23T11:43:14;8.00;75.40
37786;DHT22;23625;48.784;9.336;2024-02-23T11:45:41;8.10;76.00
37786;DHT22;23625;48.784;9.336;2024-02-23T11:48:07;8.00;74.80
37786;DHT22;23625;48.784;9.336;2024-02-23T11:50:33;8.00;75.20
37786;DHT22;23625;48.784;9.336;2024-02-23T11:52:59;8.00;75.20
37786;DHT22;23625;48.784;9.336;2024-02-23T11:55:26;8.10;76.00
37786;DHT22;23625;48.784;9.336;2024-02-23T11:57:52;8.20;75.10
37786;DHT22;23625;48.784;9.336;2024-02-23T12:00:18;8.20;76.00
37786;DHT22;23625;48.784;9.336;2024-02-23T12:02:44;8.20;76.00
37786;DHT22;23625;48.784;9.336;2024-02-23T12:05:15;8.10;75.70
37786;DHT22;23625;48.784;9.336;2024-02-23T12:07:41;8.10;75.60
37786;DHT22;23625;48.784;9.336;2024-02-23T12:10:07;8.00;75.30
37786;DHT22;23625;48.784;9.336;2024-02-23T12:12:33;8.10;75.80
37786;DHT22;23625;48.784;9.336;2024-02-23T12:14:59;8.00;75.50
37786;DHT22;23625;48.784;9.336;2024-02-23T12:17:25;8.10;75.90
37786;DHT22;23625;48.784;9.336;2024-02-23T12:20:01;8.20;76.20
37786;DHT22;23625;48.784;9.336;2024-02-23T12:22:27;8.20;75.50
37786;DHT22;23625;48.784;9.336;2024-02-23T12:24:52;8.10;74.80
37786;DHT22;23625;48.784;9.336;2024-02-23T12:27:18;8.20;75.60
37786;DHT22;23625;48.784;9.336;2024-02-23T12:29:54;8.20;74.50
37786;DHT22;23625;48.784;9.336;2024-02-23T12:32:22;8.20;74.60
37786;DHT22;23625;48.784;9.336;2024-02-23T12:34:49;8.30;75.90
37786;DHT22;23625;48.784;9.336;2024-02-23T12:37:15;8.30;74.70
37786;DHT22;23625;48.784;9.336;2024-02-23T12:39:41;8.40;75.10
37786;DHT22;23625;48.784;9.336;2024-02-23T12:42:07;8.50;75.10
37786;DHT22;23625;48.784;9.336;2024-02-23T12:44:33;8.60;74.80
37786;DHT22;23625;48.784;9.336;2024-02-23T12:46:58;8.70;73.50
37786;DHT22;23625;48.784;9.336;2024-02-23T12:49:24;8.70;73.80
37786;DHT22;23625;48.784;9.336;2024-02-23T12:51:50;8.70;74.80
37786;DHT22;23625;48.784;9.336;2024-02-23T12:54:15;8.70;74.60
37786;DHT22;23625;48.784;9.336;2024-02-23T12:56:41;8.70;74.20
37786;DHT22;23625;48.784;9.336;2024-02-23T12:59:06;8.60;74.10
37786;DHT22;23625;48.784;9.336;2024-02-23T13:01:35;8.60;74.80
37786;DHT22;23625;48.784;9.336;2024-02-23T13:04:03;8.60;74.40
37786;DHT22;23625;48.784;9.336;2024-02-23T13:06:29;8.70;75.10
37786;DHT22;23625;48.784;9.336;2024-02-23T13:08:54;8.70;75.00
37786;DHT22;23625;48.784;9.336;2024-02-23T13:11:20;8.70;75.30
37786;DHT22;23625;48.784;9.336;2024-02-23T13:13:45;8.70;75.30
37786;DHT22;23625;48.784;9.336;2024-02-23T13:16:11;8.70;75.30
37786;DHT22;23625;48.784;9.336;2024-02-23T13:18:40;8.90;74.80
37786;DHT22;23625;48.784;9.336;2024-02-23T13:21:05;8.80;74.10
37786;DHT22;23625;48.784;9.336;2024-02-23T13:23:31;8.80;75.50
37786;DHT22;23625;48.784;9.336;2024-02-23T13:25:56;8.70;74.80
37786;DHT22;23625;48.784;9.336;2024-02-23T13:28:22;8.80;75.80
37786;DHT22;23625;48.784;9.336;2024-02-23T13:30:48;8.80;76.00
37786;DHT22;23625;48.784;9.336;2024-02-23T13:33:13;8.90;75.70
37786;DHT22;23625;48.784;9.336;2024-02-23T13:35:40;8.80;75.50
37786;DHT22;23625;48.784;9.336;2024-02-23T13:38:05;8.80;75.70
37786;DHT22;23625;48.784;9.336;2024-02-23T13:40:31;8.70;75.80
37786;DHT22;23625;48.784;9.336;2024-02-23T13:42:57;8.70;76.70
37786;DHT22;23625;48.784;9.336;2024-02-23T13:45:22;8.70;75.90
37786;DHT22;23625;48.784;9.336;2024-02-23T13:48:03;8.60;76.90
37786;DHT22;23625;48.784;9.336;2024-02-23T13:50:30;8.70;76.20
37786;DHT22;23625;48.784;9.336;2024-02-23T13:52:56;8.60;76.00
37786;DHT22;23625;48.784;9.336;2024-02-23T13:55:22;8.60;77.50
37786;DHT22;23625;48.784;9.336;2024-02-23T13:57:48;8.70;77.70
37786;DHT22;23625;48.784;9.336;2024-02-23T14:00:16;8.70;77.60
37786;DHT22;23625;48.784;9.336;2024-02-23T14:02:41;8.70;77.40
37786;DHT22;23625;48.784;9.336;2024-02-23T14:05:07;8.70;77.00
37786;DHT22;23625;48.784;9.336;2024-02-23T14:07:34;8.70;76.10
37786;DHT22;23625;48.784;9.336;2024-02-23T14:09:59;8.70;74.90
37786;DHT22;23625;48.784;9.336;2024-02-23T14:12:25;8.70;75.90
37786;DHT22;23625;48.784;9.336;2024-02-23T14:14:51;8.80;76.90
37786;DHT22;23625;48.784;9.336;2024-02-23T14:17:17;8.70;75.50
37786;DHT22;23625;48.784;9.336;2024-02-23T14:19:42;8.70;75.60
37786;DHT22;23625;48.784;9.336;2024-02-23T14:22:08;8.80;75.70
37786;DHT22;23625;48.784;9.336;2024-02-23T14:24:34;8.80;75.70
37786;DHT22;23625;48.784;9.336;2024-02-23T14:27:00;8.90;76.20
37786;DHT22;23625;48.784;9.336;2024-02-23T14:29:25;8.80;75.10
37786;DHT22;23625;48.784;9.336;2024-02-23T14:31:51;8.80;74.50
37786;DHT22;23625;48.784;9.336;2024-02-23T14:34:16;8.80;74.70
37786;DHT22;23625;48.784;9.336;2024-02-23T14:36:42;8.90;75.30
37786;DHT22;23625;48.784;9.336;2024-02-23T14:39:09;8.90;75.80
37786;DHT22;23625;48.784;9.336;2024-02-23T14:41:35;8.90;76.40
37786;DHT22;23625;48.784;9.336;2024-02-23T14:44:01;8.90;76.80
37786;DHT22;23625;48.784;9.336;2024-02-23T14:46:26;8.90;76.00
37786;DHT22;23625;48.784;9.336;2024-02-23T14:48:52;8.90;75.60
37786;DHT22;23625;48.784;9.336;2024-02-23T14:51:19;8.90;75.70
37786;DHT22;23625;48.784;9.336;2024-02-23T14:53:44;9.00;75.90
37786;DHT22;23625;48.784;9.336;2024-02-23T14:56:10;9.00;75.00
37786;DHT22;23625;48.784;9.336;2024-02-23T14:58:35;9.10;76.80
37786;DHT22;23625;48.784;9.336;2024-02-23T15:01:01;9.10;74.80
37786;DHT22;23625;48.784;9.336;2024-02-23T15:03:27;9.20;74.30
37786;DHT22;23625;48.784;9.336;2024-02-23T15:05:52;9.20;73.70
37786;DHT22;23625;48.784;9.336;2024-02-23T15:08:18;9.20;74.20
37786;DHT22;23625;48.784;9.336;2024-02-23T15:10:43;9.00;72.90
37786;DHT22;23625;48.784;9.336;2024-02-23T15:13:09;8.90;73.40
37786;DHT22;23625;48.784;9.336;2024-02-23T15:15:35;8.80;73.60
37786;DHT22;23625;48.784;9.336;2024-02-23T15:18:06;8.80;73.60
37786;DHT22;23625;48.784;9.336;2024-02-23T15:20:31;8.70;73.80
37786;DHT22;23625;48.784;9.336;2024-02-23T15:22:57;8.70;74.60
37786;DHT22;23625;48.784;9.336;2024-02-23T15:25:23;8.60;74.20
37786;DHT22;23625;48.784;9.336;2024-02-23T15:27:48;8.60;74.40
37786;DHT22;23625;48.784;9.336;2024-02-23T15:30:15;8.60;74.70
37786;DHT22;23625;48.784;9.336;2024-02-23T15:32:41;8.60;74.90
37786;DHT22;23625;48.784;9.336;2024-02-23T15:35:07;8.60;74.90
37786;DHT22;23625;48.784;9.336;2024-02-23T15:37:33;8.60;74.90
37786;DHT22;23625;48.784;9.336;2024-02-23T15:39:58;8.70;75.20
37786;DHT22;23625;48.784;9.336;2024-02-23T15:42:25;8.70;75.00